sensor_id;sensor_type;location;lat;lon;timestamp;pressure;altitude;pressure_sealevel;temperature;humidity
13767;BME280;47980;48.794;9.176;2023-04-22T00:01:41;97602.06;;;13.10;78.24
13767;BME280;47980;48.794;9.176;2023-04-22T00:04:13;97603.56;;;13.07;78.58
13767;BME280;47980;48.794;9.176;2023-04-22T00:06:45;97596.97;;;13.01;79.79
13767;BME280;47980;48.794;9.176;2023-04-22T00:09:16;97596.19;;;13.00;79.42
13767;BME280;47980;48.794;9.176;2023-04-22T00:11:48;97597.38;;;13.03;78.38
13767;BME280;47980;48.794;9.176;2023-04-22T00:14:19;97601.84;;;12.99;79.70
13767;BME280;47980;48.794;9.176;2023-04-22T00:16:52;97597.66;;;12.98;78.42
13767;BME280;47980;48.794;9.176;2023-04-22T00:19:24;97587.00;;;12.98;78.17
13767;BME280;47980;48.794;9.176;2023-04-22T00:21:55;97589.38;;;13.03;78.28
13767;BME280;47980;48.794;9.176;2023-04-22T00:24:27;97592.03;;;13.03;78.26
13767;BME280;47980;48.794;9.176;2023-04-22T00:26:59;97593.94;;;13.02;77.48
13767;BME280;47980;48.794;9.176;2023-04-22T00:29:32;97590.56;;;13.06;75.65
13767;BME280;47980;48.794;9.176;2023-04-22T00:32:05;97591.41;;;13.10;75.54
13767;BME280;47980;48.794;9.176;2023-04-22T00:34:36;97592.47;;;13.05;77.39
13767;BME280;47980;48.794;9.176;2023-04-22T00:37:08;97595.50;;;13.04;76.52
13767;BME280;47980;48.794;9.176;2023-04-22T00:39:39;97597.44;;;13.07;76.89
13767;BME280;47980;48.794;9.176;2023-04-22T00:42:12;97593.59;;;13.04;77.56
13767;BME280;47980;48.794;9.176;2023-04-22T00:44:45;97590.56;;;13.06;75.72
13767;BME280;47980;48.794;9.176;2023-04-22T00:47:19;97584.94;;;13.11;75.69
13767;BME280;47980;48.794;9.176;2023-04-22T00:49:52;97591.47;;;13.13;75.14
13767;BME280;47980;48.794;9.176;2023-04-22T00:52:24;97591.00;;;13.08;75.64
13767;BME280;47980;48.794;9.176;2023-04-22T00:54:56;97605.78;;;13.05;77.76
13767;BME280;47980;48.794;9.176;2023-04-22T00:57:28;97594.69;;;13.03;77.54
13767;BME280;47980;48.794;9.176;2023-04-22T01:00:01;97600.69;;;12.96;78.88
13767;BME280;47980;48.794;9.176;2023-04-22T01:02:35;97592.63;;;12.93;79.50
13767;BME280;47980;48.794;9.176;2023-04-22T01:05:07;97593.09;;;12.98;78.98
13767;BME280;47980;48.794;9.176;2023-04-22T01:07:39;97590.69;;;12.90;80.92
13767;BME280;47980;48.794;9.176;2023-04-22T01:10:11;97593.34;;;12.90;78.44
13767;BME280;47980;48.794;9.176;2023-04-22T01:12:43;97587.59;;;12.88;80.09
13767;BME280;47980;48.794;9.176;2023-04-22T01:15:14;97596.69;;;12.87;79.54
13767;BME280;47980;48.794;9.176;2023-04-22T01:17:47;97592.69;;;12.77;81.63
13767;BME280;47980;48.794;9.176;2023-04-22T01:20:20;97592.31;;;12.75;81.23
13767;BME280;47980;48.794;9.176;2023-04-22T01:22:52;97585.91;;;12.80;81.30
13767;BME280;47980;48.794;9.176;2023-04-22T01:25:27;97591.47;;;12.71;82.05
13767;BME280;47980;48.794;9.176;2023-04-22T01:27:58;97592.16;;;12.68;82.52
13767;BME280;47980;48.794;9.176;2023-04-22T01:30:31;97590.19;;;12.65;83.12
13767;BME280;47980;48.794;9.176;2023-04-22T01:33:03;97592.34;;;12.59;82.95
13767;BME280;47980;48.794;9.176;2023-04-22T01:35:35;97588.22;;;12.62;81.07
13767;BME280;47980;48.794;9.176;2023-04-22T01:38:08;97587.09;;;12.63;82.30
13767;BME280;47980;48.794;9.176;2023-04-22T01:40:41;97587.03;;;12.59;83.33
13767;BME280;47980;48.794;9.176;2023-04-22T01:43:13;97590.81;;;12.58;83.54
13767;BME280;47980;48.794;9.176;2023-04-22T01:45:45;97588.09;;;12.55;84.08
13767;BME280;47980;48.794;9.176;2023-04-22T01:48:16;97597.88;;;12.50;83.72
13767;BME280;47980;48.794;9.176;2023-04-22T01:50:48;97595.63;;;12.52;82.12
13767;BME280;47980;48.794;9.176;2023-04-22T01:53:19;97596.00;;;12.51;83.77
13767;BME280;47980;48.794;9.176;2023-04-22T01:55:52;97591.44;;;12.51;82.91
13767;BME280;47980;48.794;9.176;2023-04-22T01:58:27;97592.97;;;12.52;84.10
13767;BME280;47980;48.794;9.176;2023-04-22T02:00:58;97595.72;;;12.56;83.16
13767;BME280;47980;48.794;9.176;2023-04-22T02:03:30;97589.28;;;12.57;84.11
13767;BME280;47980;48.794;9.176;2023-04-22T02:06:02;97588.38;;;12.49;83.78
13767;BME280;47980;48.794;9.176;2023-04-22T02:08:33;97597.38;;;12.45;83.05
13767;BME280;47980;48.794;9.176;2023-04-22T02:11:06;97598.22;;;12.49;84.19
13767;BME280;47980;48.794;9.176;2023-04-22T02:13:39;97598.50;;;12.44;85.53
13767;BME280;47980;48.794;9.176;2023-04-22T02:16:11;97606.00;;;12.38;85.55
13767;BME280;47980;48.794;9.176;2023-04-22T02:18:42;97607.47;;;12.36;85.58
13767;BME280;47980;48.794;9.176;2023-04-22T02:21:14;97607.88;;;12.38;85.34
13767;BME280;47980;48.794;9.176;2023-04-22T02:23:45;97609.44;;;12.39;83.56
13767;BME280;47980;48.794;9.176;2023-04-22T02:26:18;97616.06;;;12.48;83.29
13767;BME280;47980;48.794;9.176;2023-04-22T02:28:50;97623.81;;;12.53;83.21
13767;BME280;47980;48.794;9.176;2023-04-22T02:31:21;97620.31;;;12.49;82.92
13767;BME280;47980;48.794;9.176;2023-04-22T02:33:53;97618.25;;;12.62;80.73
13767;BME280;47980;48.794;9.176;2023-04-22T02:36:24;97613.94;;;12.54;81.71
13767;BME280;47980;48.794;9.176;2023-04-22T02:38:57;97613.78;;;12.47;81.44
13767;BME280;47980;48.794;9.176;2023-04-22T02:41:30;97626.94;;;12.40;82.67
13767;BME280;47980;48.794;9.176;2023-04-22T02:44:01;97619.47;;;12.29;86.12
13767;BME280;47980;48.794;9.176;2023-04-22T02:46:33;97621.91;;;12.19;86.37
13767;BME280;47980;48.794;9.176;2023-04-22T02:49:04;97619.53;;;12.14;86.56
13767;BME280;47980;48.794;9.176;2023-04-22T02:51:36;97617.19;;;12.12;86.37
13767;BME280;47980;48.794;9.176;2023-04-22T02:54:08;97623.22;;;12.09;86.14
13767;BME280;47980;48.794;9.176;2023-04-22T02:56:41;97627.16;;;12.15;86.15
13767;BME280;47980;48.794;9.176;2023-04-22T02:59:13;97620.97;;;12.11;86.46
13767;BME280;47980;48.794;9.176;2023-04-22T03:01:44;97618.53;;;12.02;87.05
13767;BME280;47980;48.794;9.176;2023-04-22T03:04:16;97626.81;;;12.01;87.73
13767;BME280;47980;48.794;9.176;2023-04-22T03:06:51;97621.94;;;12.03;86.92
13767;BME280;47980;48.794;9.176;2023-04-22T03:09:22;97616.97;;;12.01;87.66
13767;BME280;47980;48.794;9.176;2023-04-22T03:11:55;97606.31;;;12.01;87.71
13767;BME280;47980;48.794;9.176;2023-04-22T03:14:27;97609.53;;;11.91;88.29
13767;BME280;47980;48.794;9.176;2023-04-22T03:16:59;97611.00;;;11.89;89.45
13767;BME280;47980;48.794;9.176;2023-04-22T03:19:30;97608.56;;;11.84;89.34
13767;BME280;47980;48.794;9.176;2023-04-22T03:22:02;97615.44;;;11.85;89.29
13767;BME280;47980;48.794;9.176;2023-04-22T03:24:33;97617.66;;;11.82;91.67
13767;BME280;47980;48.794;9.176;2023-04-22T03:27:06;97614.91;;;11.79;91.67
13767;BME280;47980;48.794;9.176;2023-04-22T03:29:38;97617.47;;;11.75;93.00
13767;BME280;47980;48.794;9.176;2023-04-22T03:32:09;97614.31;;;11.70;92.42
13767;BME280;47980;48.794;9.176;2023-04-22T03:34:41;97613.72;;;11.76;94.05
13767;BME280;47980;48.794;9.176;2023-04-22T03:37:12;97616.44;;;11.80;92.71
13767;BME280;47980;48.794;9.176;2023-04-22T03:39:44;97616.44;;;11.80;93.54
13767;BME280;47980;48.794;9.176;2023-04-22T03:42:17;97613.97;;;11.71;94.03
13767;BME280;47980;48.794;9.176;2023-04-22T03:44:48;97612.34;;;11.67;93.79
13767;BME280;47980;48.794;9.176;2023-04-22T03:47:20;97621.34;;;11.62;94.91
13767;BME280;47980;48.794;9.176;2023-04-22T03:49:51;97622.81;;;11.60;94.60
13767;BME280;47980;48.794;9.176;2023-04-22T03:52:23;97622.63;;;11.52;96.46
13767;BME280;47980;48.794;9.176;2023-04-22T03:54:55;97621.50;;;11.53;96.44
13767;BME280;47980;48.794;9.176;2023-04-22T03:57:28;97626.50;;;11.55;95.47
13767;BME280;47980;48.794;9.176;2023-04-22T03:59:59;97624.50;;;11.52;95.43
13767;BME280;47980;48.794;9.176;2023-04-22T04:02:31;97626.72;;;11.50;95.42
13767;BME280;47980;48.794;9.176;2023-04-22T04:05:02;97630.25;;;11.54;95.49
13767;BME280;47980;48.794;9.176;2023-04-22T04:07:35;97632.56;;;11.55;95.07
13767;BME280;47980;48.794;9.176;2023-04-22T04:10:08;97628.63;;;11.49;95.19
13767;BME280;47980;48.794;9.176;2023-04-22T04:12:41;97623.47;;;11.41;97.26
13767;BME280;47980;48.794;9.176;2023-04-22T04:15:12;97616.59;;;11.40;96.53
13767;BME280;47980;48.794;9.176;2023-04-22T04:17:44;97617.03;;;11.42;96.94
13767;BME280;47980;48.794;9.176;2023-04-22T04:20:17;97621.69;;;11.45;96.44
13767;BME280;47980;48.794;9.176;2023-04-22T04:22:49;97619.69;;;11.42;94.25
13767;BME280;47980;48.794;9.176;2023-04-22T04:25:20;97611.91;;;11.33;95.11
13767;BME280;47980;48.794;9.176;2023-04-22T04:27:53;97616.00;;;11.30;97.23
13767;BME280;47980;48.794;9.176;2023-04-22T04:30:25;97611.03;;;11.29;97.06
13767;BME280;47980;48.794;9.176;2023-04-22T04:32:57;97616.88;;;11.35;96.32
13767;BME280;47980;48.794;9.176;2023-04-22T04:35:28;97616.38;;;11.45;95.38
13767;BME280;47980;48.794;9.176;2023-04-22T04:38:03;97613.63;;;11.57;94.72
13767;BME280;47980;48.794;9.176;2023-04-22T04:40:35;97607.91;;;11.55;93.88
13767;BME280;47980;48.794;9.176;2023-04-22T04:43:08;97609.16;;;11.61;92.70
13767;BME280;47980;48.794;9.176;2023-04-22T04:45:40;97606.94;;;11.63;93.58
13767;BME280;47980;48.794;9.176;2023-04-22T04:48:15;97601.56;;;11.60;92.86
13767;BME280;47980;48.794;9.176;2023-04-22T04:50:49;97609.53;;;11.60;93.69
13767;BME280;47980;48.794;9.176;2023-04-22T04:53:23;97604.22;;;11.60;94.17
13767;BME280;47980;48.794;9.176;2023-04-22T04:55:54;97608.56;;;11.68;93.34
13767;BME280;47980;48.794;9.176;2023-04-22T04:58:27;97602.66;;;11.74;93.67
13767;BME280;47980;48.794;9.176;2023-04-22T05:00:59;97610.03;;;11.81;93.24
13767;BME280;47980;48.794;9.176;2023-04-22T05:03:30;97609.78;;;11.86;92.64
13767;BME280;47980;48.794;9.176;2023-04-22T05:06:03;97608.81;;;11.78;92.67
13767;BME280;47980;48.794;9.176;2023-04-22T05:08:34;97604.91;;;11.88;92.23
13767;BME280;47980;48.794;9.176;2023-04-22T05:11:06;97611.56;;;11.98;90.26
13767;BME280;47980;48.794;9.176;2023-04-22T05:13:39;97608.75;;;11.91;90.36
13767;BME280;47980;48.794;9.176;2023-04-22T05:16:10;97607.22;;;11.90;92.36
13767;BME280;47980;48.794;9.176;2023-04-22T05:18:42;97605.75;;;11.92;92.07
13767;BME280;47980;48.794;9.176;2023-04-22T05:21:14;97608.81;;;11.94;93.20
13767;BME280;47980;48.794;9.176;2023-04-22T05:23:45;97610.53;;;12.02;92.14
13767;BME280;47980;48.794;9.176;2023-04-22T05:26:17;97606.06;;;12.07;90.79
13767;BME280;47980;48.794;9.176;2023-04-22T05:28:51;97613.91;;;11.99;90.81
13767;BME280;47980;48.794;9.176;2023-04-22T05:31:22;97606.31;;;12.17;90.09
13767;BME280;47980;48.794;9.176;2023-04-22T05:33:54;97617.03;;;12.21;90.37
13767;BME280;47980;48.794;9.176;2023-04-22T05:36:25;97623.28;;;12.28;91.14
13767;BME280;47980;48.794;9.176;2023-04-22T05:38:57;97623.97;;;12.25;90.38
13767;BME280;47980;48.794;9.176;2023-04-22T05:41:29;97628.75;;;12.36;88.22
13767;BME280;47980;48.794;9.176;2023-04-22T05:44:01;97626.09;;;12.36;89.50
13767;BME280;47980;48.794;9.176;2023-04-22T05:46:35;97632.59;;;12.38;90.13
13767;BME280;47980;48.794;9.176;2023-04-22T05:49:06;97627.63;;;12.56;88.33
13767;BME280;47980;48.794;9.176;2023-04-22T05:51:38;97627.38;;;12.61;88.78
13767;BME280;47980;48.794;9.176;2023-04-22T05:54:10;97623.09;;;12.76;87.91
13767;BME280;47980;48.794;9.176;2023-04-22T05:56:42;97621.06;;;12.89;87.34
13767;BME280;47980;48.794;9.176;2023-04-22T05:59:14;97621.97;;;13.16;84.88
13767;BME280;47980;48.794;9.176;2023-04-22T06:01:46;97629.47;;;13.30;82.62
13767;BME280;47980;48.794;9.176;2023-04-22T06:04:18;97630.38;;;13.37;81.44
13767;BME280;47980;48.794;9.176;2023-04-22T06:06:50;97633.09;;;13.64;78.72
13767;BME280;47980;48.794;9.176;2023-04-22T06:09:23;97630.06;;;13.88;79.65
13767;BME280;47980;48.794;9.176;2023-04-22T06:11:54;97628.47;;;13.84;78.22
13767;BME280;47980;48.794;9.176;2023-04-22T06:14:28;97632.03;;;14.18;77.67
13767;BME280;47980;48.794;9.176;2023-04-22T06:17:00;97635.72;;;14.10;78.02
13767;BME280;47980;48.794;9.176;2023-04-22T06:19:32;97638.72;;;13.82;78.05
13767;BME280;47980;48.794;9.176;2023-04-22T06:22:03;97640.53;;;14.01;78.89
13767;BME280;47980;48.794;9.176;2023-04-22T06:24:38;97633.81;;;14.37;75.24
13767;BME280;47980;48.794;9.176;2023-04-22T06:27:12;97639.97;;;14.67;75.89
13767;BME280;47980;48.794;9.176;2023-04-22T06:29:45;97632.34;;;14.69;74.04
13767;BME280;47980;48.794;9.176;2023-04-22T06:32:17;97631.50;;;14.96;74.03
13767;BME280;47980;48.794;9.176;2023-04-22T06:34:49;97646.13;;;15.05;74.28
13767;BME280;47980;48.794;9.176;2023-04-22T06:37:20;97636.19;;;15.43;72.77
13767;BME280;47980;48.794;9.176;2023-04-22T06:39:52;97636.66;;;15.52;70.58
13767;BME280;47980;48.794;9.176;2023-04-22T06:42:23;97644.25;;;15.47;70.92
13767;BME280;47980;48.794;9.176;2023-04-22T06:44:56;97646.28;;;15.20;70.92
13767;BME280;47980;48.794;9.176;2023-04-22T06:47:28;97643.94;;;15.14;69.99
13767;BME280;47980;48.794;9.176;2023-04-22T06:50:00;97654.38;;;14.93;72.34
13767;BME280;47980;48.794;9.176;2023-04-22T06:52:32;97649.78;;;14.90;71.99
13767;BME280;47980;48.794;9.176;2023-04-22T06:55:04;97647.19;;;15.34;71.89
13767;BME280;47980;48.794;9.176;2023-04-22T06:57:35;97648.44;;;15.44;69.78
13767;BME280;47980;48.794;9.176;2023-04-22T07:00:09;97652.84;;;15.26;71.06
13767;BME280;47980;48.794;9.176;2023-04-22T07:02:41;97649.94;;;15.41;70.59
13767;BME280;47980;48.794;9.176;2023-04-22T07:05:12;97646.00;;;14.95;71.79
13767;BME280;47980;48.794;9.176;2023-04-22T07:07:44;97641.84;;;15.34;69.75
13767;BME280;47980;48.794;9.176;2023-04-22T07:10:16;97645.53;;;15.60;69.15
13767;BME280;47980;48.794;9.176;2023-04-22T07:12:47;97647.88;;;15.65;69.01
13767;BME280;47980;48.794;9.176;2023-04-22T07:15:20;97641.88;;;15.79;68.15
13767;BME280;47980;48.794;9.176;2023-04-22T07:17:52;97641.91;;;15.41;70.13
13767;BME280;47980;48.794;9.176;2023-04-22T07:20:23;97638.66;;;15.62;69.12
13767;BME280;47980;48.794;9.176;2023-04-22T07:22:55;97637.69;;;15.37;69.01
13767;BME280;47980;48.794;9.176;2023-04-22T07:25:27;97632.31;;;15.74;67.89
13767;BME280;47980;48.794;9.176;2023-04-22T07:27:58;97633.19;;;15.89;68.29
13767;BME280;47980;48.794;9.176;2023-04-22T07:30:31;97630.97;;;15.57;68.37
13767;BME280;47980;48.794;9.176;2023-04-22T07:33:03;97621.53;;;15.67;69.33
13767;BME280;47980;48.794;9.176;2023-04-22T07:35:35;97611.06;;;15.96;68.25
13767;BME280;47980;48.794;9.176;2023-04-22T07:38:07;97615.06;;;16.20;67.06
13767;BME280;47980;48.794;9.176;2023-04-22T07:40:38;97617.66;;;16.78;64.17
13767;BME280;47980;48.794;9.176;2023-04-22T07:43:10;97619.44;;;16.53;66.44
13767;BME280;47980;48.794;9.176;2023-04-22T07:45:43;97616.50;;;16.79;64.99
13767;BME280;47980;48.794;9.176;2023-04-22T07:48:15;97620.19;;;16.50;64.98
13767;BME280;47980;48.794;9.176;2023-04-22T07:50:47;97616.63;;;17.15;63.27
13767;BME280;47980;48.794;9.176;2023-04-22T07:53:18;97629.75;;;17.77;61.32
13767;BME280;47980;48.794;9.176;2023-04-22T07:55:50;97620.84;;;17.20;62.26
13767;BME280;47980;48.794;9.176;2023-04-22T07:58:21;97629.34;;;17.79;61.16
13767;BME280;47980;48.794;9.176;2023-04-22T08:00:55;97630.06;;;18.26;60.76
13767;BME280;47980;48.794;9.176;2023-04-22T08:03:26;97630.41;;;18.49;59.11
13767;BME280;47980;48.794;9.176;2023-04-22T08:05:58;97639.28;;;18.32;58.37
13767;BME280;47980;48.794;9.176;2023-04-22T08:08:29;97638.19;;;17.94;58.65
13767;BME280;47980;48.794;9.176;2023-04-22T08:11:01;97644.31;;;17.98;59.67
13767;BME280;47980;48.794;9.176;2023-04-22T08:13:33;97634.69;;;18.04;60.13
13767;BME280;47980;48.794;9.176;2023-04-22T08:16:06;97639.72;;;18.02;59.74
13767;BME280;47980;48.794;9.176;2023-04-22T08:18:37;97630.44;;;18.32;58.92
13767;BME280;47980;48.794;9.176;2023-04-22T08:21:09;97643.16;;;17.92;59.37
13767;BME280;47980;48.794;9.176;2023-04-22T08:23:41;97628.94;;;17.70;59.17
13767;BME280;47980;48.794;9.176;2023-04-22T08:26:13;97636.25;;;17.87;59.17
13767;BME280;47980;48.794;9.176;2023-04-22T08:28:46;97628.22;;;17.80;58.82
13767;BME280;47980;48.794;9.176;2023-04-22T08:31:19;97629.72;;;18.06;58.42
13767;BME280;47980;48.794;9.176;2023-04-22T08:33:51;97626.97;;;18.45;58.35
13767;BME280;47980;48.794;9.176;2023-04-22T08:36:22;97635.72;;;18.78;56.91
13767;BME280;47980;48.794;9.176;2023-04-22T08:38:55;97626.59;;;19.31;54.21
13767;BME280;47980;48.794;9.176;2023-04-22T08:41:27;97624.47;;;19.67;54.40
13767;BME280;47980;48.794;9.176;2023-04-22T08:43:59;97626.34;;;19.70;54.01
13767;BME280;47980;48.794;9.176;2023-04-22T08:46:32;97626.38;;;19.67;52.53
13767;BME280;47980;48.794;9.176;2023-04-22T08:49:05;97627.75;;;19.86;53.13
13767;BME280;47980;48.794;9.176;2023-04-22T08:51:36;97622.22;;;20.04;51.84
13767;BME280;47980;48.794;9.176;2023-04-22T08:54:09;97628.69;;;20.13;52.06
13767;BME280;47980;48.794;9.176;2023-04-22T08:56:43;97627.28;;;19.46;51.65
13767;BME280;47980;48.794;9.176;2023-04-22T08:59:15;97619.53;;;20.04;51.06
13767;BME280;47980;48.794;9.176;2023-04-22T09:01:51;97621.63;;;19.85;52.25
13767;BME280;47980;48.794;9.176;2023-04-22T09:04:23;97617.47;;;20.18;51.27
13767;BME280;47980;48.794;9.176;2023-04-22T09:06:55;97609.16;;;20.78;48.77
13767;BME280;47980;48.794;9.176;2023-04-22T09:09:27;97612.63;;;20.78;48.98
13767;BME280;47980;48.794;9.176;2023-04-22T09:12:00;97600.28;;;21.08;49.03
13767;BME280;47980;48.794;9.176;2023-04-22T09:14:32;97598.72;;;20.80;49.13
13767;BME280;47980;48.794;9.176;2023-04-22T09:17:06;97605.81;;;20.29;49.40
13767;BME280;47980;48.794;9.176;2023-04-22T09:19:37;97594.78;;;20.88;47.25
13767;BME280;47980;48.794;9.176;2023-04-22T09:22:09;97598.91;;;21.23;46.28
13767;BME280;47980;48.794;9.176;2023-04-22T09:24:48;97589.28;;;20.64;46.41
13767;BME280;47980;48.794;9.176;2023-04-22T09:27:23;97591.81;;;20.79;47.44
13767;BME280;47980;48.794;9.176;2023-04-22T09:29:54;97589.34;;;21.19;46.84
13767;BME280;47980;48.794;9.176;2023-04-22T09:32:27;97598.28;;;21.66;44.96
13767;BME280;47980;48.794;9.176;2023-04-22T09:34:59;97595.13;;;20.90;45.77
13767;BME280;47980;48.794;9.176;2023-04-22T09:37:31;97591.13;;;21.56;45.02
13767;BME280;47980;48.794;9.176;2023-04-22T09:40:06;97589.78;;;22.54;43.64
13767;BME280;47980;48.794;9.176;2023-04-22T09:42:47;97593.53;;;22.41;42.92
13767;BME280;47980;48.794;9.176;2023-04-22T09:45:29;97597.50;;;22.13;43.19
13767;BME280;47980;48.794;9.176;2023-04-22T09:48:06;97594.06;;;21.88;42.30
13767;BME280;47980;48.794;9.176;2023-04-22T09:50:42;97585.72;;;21.56;44.88
13767;BME280;47980;48.794;9.176;2023-04-22T09:53:15;97583.81;;;22.23;45.05
13767;BME280;47980;48.794;9.176;2023-04-22T09:55:49;97578.69;;;22.29;43.91
13767;BME280;47980;48.794;9.176;2023-04-22T09:58:21;97578.72;;;21.82;44.31
13767;BME280;47980;48.794;9.176;2023-04-22T10:00:56;97574.34;;;22.55;43.08
13767;BME280;47980;48.794;9.176;2023-04-22T10:03:30;97576.44;;;23.20;41.22
13767;BME280;47980;48.794;9.176;2023-04-22T10:06:02;97580.59;;;23.90;41.16
13767;BME280;47980;48.794;9.176;2023-04-22T10:08:34;97575.78;;;23.81;41.19
13767;BME280;47980;48.794;9.176;2023-04-22T10:11:06;97559.69;;;23.74;39.09
13767;BME280;47980;48.794;9.176;2023-04-22T10:13:38;97563.56;;;23.24;41.40
13767;BME280;47980;48.794;9.176;2023-04-22T10:16:09;97558.19;;;22.88;40.05
13767;BME280;47980;48.794;9.176;2023-04-22T10:18:43;97564.00;;;22.50;40.74
13767;BME280;47980;48.794;9.176;2023-04-22T10:21:16;97562.03;;;22.70;41.95
13767;BME280;47980;48.794;9.176;2023-04-22T10:23:48;97560.34;;;22.76;40.56
13767;BME280;47980;48.794;9.176;2023-04-22T10:26:40;97559.19;;;23.14;40.62
13767;BME280;47980;48.794;9.176;2023-04-22T10:29:13;97555.66;;;23.17;39.28
13767;BME280;47980;48.794;9.176;2023-04-22T10:31:52;97554.84;;;23.00;40.74
13767;BME280;47980;48.794;9.176;2023-04-22T10:34:25;97552.78;;;22.88;39.77
13767;BME280;47980;48.794;9.176;2023-04-22T10:36:59;97550.63;;;23.15;39.14
13767;BME280;47980;48.794;9.176;2023-04-22T10:39:31;97555.13;;;23.38;38.59
13767;BME280;47980;48.794;9.176;2023-04-22T10:42:09;97551.75;;;23.83;35.57
13767;BME280;47980;48.794;9.176;2023-04-22T10:44:47;97545.31;;;24.06;34.49
13767;BME280;47980;48.794;9.176;2023-04-22T10:47:32;97538.75;;;24.20;36.27
13767;BME280;47980;48.794;9.176;2023-04-22T10:50:15;97531.53;;;24.30;37.11
13767;BME280;47980;48.794;9.176;2023-04-22T10:52:49;97524.69;;;23.96;35.87
13767;BME280;47980;48.794;9.176;2023-04-22T10:55:22;97525.63;;;23.89;39.39
13767;BME280;47980;48.794;9.176;2023-04-22T10:57:53;97523.25;;;23.46;40.51
13767;BME280;47980;48.794;9.176;2023-04-22T11:00:28;97532.72;;;23.21;42.63
13767;BME280;47980;48.794;9.176;2023-04-22T11:03:11;97523.81;;;23.53;41.70
13767;BME280;47980;48.794;9.176;2023-04-22T11:05:44;97520.75;;;23.84;40.82
13767;BME280;47980;48.794;9.176;2023-04-22T11:08:19;97531.53;;;24.30;39.04
13767;BME280;47980;48.794;9.176;2023-04-22T11:11:07;97530.66;;;23.74;39.64
13767;BME280;47980;48.794;9.176;2023-04-22T11:13:40;97524.75;;;23.47;35.46
13767;BME280;47980;48.794;9.176;2023-04-22T11:16:13;97517.13;;;23.74;35.26
13767;BME280;47980;48.794;9.176;2023-04-22T11:18:45;97520.63;;;23.42;35.16
13767;BME280;47980;48.794;9.176;2023-04-22T11:21:19;97513.94;;;23.92;35.98
13767;BME280;47980;48.794;9.176;2023-04-22T11:23:51;97517.75;;;23.95;35.59
13767;BME280;47980;48.794;9.176;2023-04-22T11:26:32;97518.19;;;24.22;34.75
13767;BME280;47980;48.794;9.176;2023-04-22T11:29:04;97522.50;;;24.20;34.71
13767;BME280;47980;48.794;9.176;2023-04-22T11:31:35;97523.47;;;24.55;34.23
13767;BME280;47980;48.794;9.176;2023-04-22T11:34:07;97518.78;;;24.43;33.41
13767;BME280;47980;48.794;9.176;2023-04-22T11:36:44;97508.25;;;24.45;33.33
13767;BME280;47980;48.794;9.176;2023-04-22T11:39:15;97509.16;;;25.06;34.00
13767;BME280;47980;48.794;9.176;2023-04-22T11:41:47;97491.94;;;25.47;32.77
13767;BME280;47980;48.794;9.176;2023-04-22T11:44:22;97495.94;;;25.90;32.22
13767;BME280;47980;48.794;9.176;2023-04-22T11:46:55;97498.03;;;26.08;32.33
13767;BME280;47980;48.794;9.176;2023-04-22T11:49:27;97504.44;;;25.44;31.77
13767;BME280;47980;48.794;9.176;2023-04-22T11:52:04;97509.09;;;25.44;32.25
13767;BME280;47980;48.794;9.176;2023-04-22T11:54:38;97502.56;;;25.54;33.12
13767;BME280;47980;48.794;9.176;2023-04-22T11:57:10;97497.31;;;25.95;31.91
13767;BME280;47980;48.794;9.176;2023-04-22T11:59:56;97497.69;;;25.84;31.64
13767;BME280;47980;48.794;9.176;2023-04-22T12:02:28;97494.84;;;25.87;31.38
13767;BME280;47980;48.794;9.176;2023-04-22T12:05:01;97499.59;;;25.61;32.53
13767;BME280;47980;48.794;9.176;2023-04-22T12:07:34;97505.53;;;25.47;31.61
13767;BME280;47980;48.794;9.176;2023-04-22T12:10:07;97503.16;;;25.36;32.55
13767;BME280;47980;48.794;9.176;2023-04-22T12:12:39;97492.69;;;25.48;34.01
13767;BME280;47980;48.794;9.176;2023-04-22T12:15:11;97501.34;;;25.68;32.39
13767;BME280;47980;48.794;9.176;2023-04-22T12:17:44;97495.47;;;25.35;32.92
13767;BME280;47980;48.794;9.176;2023-04-22T12:20:16;97490.38;;;25.59;33.38
13767;BME280;47980;48.794;9.176;2023-04-22T12:22:51;97497.63;;;25.27;34.38
13767;BME280;47980;48.794;9.176;2023-04-22T12:25:23;97495.03;;;24.98;34.10
13767;BME280;47980;48.794;9.176;2023-04-22T12:27:54;97496.97;;;25.23;34.66
13767;BME280;47980;48.794;9.176;2023-04-22T12:30:26;97507.63;;;25.05;34.43
13767;BME280;47980;48.794;9.176;2023-04-22T12:32:58;97507.97;;;24.81;35.27
13767;BME280;47980;48.794;9.176;2023-04-22T12:35:30;97504.59;;;25.28;34.08
13767;BME280;47980;48.794;9.176;2023-04-22T12:38:02;97498.16;;;25.69;34.56
13767;BME280;47980;48.794;9.176;2023-04-22T12:40:34;97492.47;;;25.77;33.27
13767;BME280;47980;48.794;9.176;2023-04-22T12:43:06;97493.72;;;25.28;33.15
13767;BME280;47980;48.794;9.176;2023-04-22T12:45:37;97496.91;;;25.14;33.60
13767;BME280;47980;48.794;9.176;2023-04-22T12:48:09;97502.00;;;24.73;33.50
13767;BME280;47980;48.794;9.176;2023-04-22T12:50:41;97497.19;;;24.90;34.30
13767;BME280;47980;48.794;9.176;2023-04-22T12:53:14;97492.69;;;24.33;34.78
13767;BME280;47980;48.794;9.176;2023-04-22T12:55:46;97494.09;;;24.24;34.67
13767;BME280;47980;48.794;9.176;2023-04-22T12:58:18;97494.31;;;24.30;35.14
13767;BME280;47980;48.794;9.176;2023-04-22T13:00:49;97502.09;;;24.15;34.42
13767;BME280;47980;48.794;9.176;2023-04-22T13:03:21;97497.09;;;24.56;33.57
13767;BME280;47980;48.794;9.176;2023-04-22T13:05:53;97498.31;;;24.80;32.89
13767;BME280;47980;48.794;9.176;2023-04-22T13:08:26;97493.97;;;24.95;32.37
13767;BME280;47980;48.794;9.176;2023-04-22T13:10:59;97492.09;;;25.05;32.91
13767;BME280;47980;48.794;9.176;2023-04-22T13:13:30;97490.50;;;24.95;33.08
13767;BME280;47980;48.794;9.176;2023-04-22T13:16:02;97493.72;;;25.15;33.52
13767;BME280;47980;48.794;9.176;2023-04-22T13:18:33;97499.59;;;24.50;36.01
13767;BME280;47980;48.794;9.176;2023-04-22T13:21:05;97493.50;;;24.46;34.14
13767;BME280;47980;48.794;9.176;2023-04-22T13:23:38;97493.28;;;24.53;34.20
13767;BME280;47980;48.794;9.176;2023-04-22T13:26:10;97509.91;;;24.13;34.13
13767;BME280;47980;48.794;9.176;2023-04-22T13:28:42;97500.09;;;24.03;36.40